createdAt,value
2023-02-14T00:01:25.307Z,91.26
2023-02-14T00:03:49.419Z,90.68
2023-02-14T00:06:13.399Z,90.59
2023-02-14T00:08:35.074Z,89.68
2023-02-14T00:10:56.710Z,89.11
2023-02-14T00:13:18.400Z,89.59
2023-02-14T00:15:39.824Z,89.76
2023-02-14T00:18:02.118Z,89.66
2023-02-14T00:20:24.240Z,89.41
2023-02-14T00:22:45.675Z,89.80
2023-02-14T00:25:07.492Z,89.40
2023-02-14T00:27:29.056Z,91.41
2023-02-14T00:29:50.508Z,91.78
2023-02-14T00:32:12.012Z,92.10
2023-02-14T00:34:36.449Z,91.31
2023-02-14T00:36:58.748Z,91.07
2023-02-14T00:39:20.396Z,90.30
2023-02-14T00:41:42.679Z,90.19
2023-02-14T00:44:04.896Z,90.10
2023-02-14T00:46:26.985Z,89.32
2023-02-14T00:48:48.703Z,89.51
2023-02-14T00:51:10.728Z,89.56
2023-02-14T00:53:32.222Z,89.34
2023-02-14T00:55:53.658Z,89.57
2023-02-14T00:58:15.131Z,89.36
2023-02-14T01:00:36.649Z,89.03
2023-02-14T01:02:58.069Z,90.00
2023-02-14T01:05:19.577Z,91.92
2023-02-14T01:07:41.046Z,93.36
2023-02-14T01:10:02.488Z,93.21
2023-02-14T01:12:23.912Z,91.73
2023-02-14T01:14:45.413Z,91.84
2023-02-14T01:17:06.847Z,91.88
2023-02-14T01:19:28.279Z,92.32
2023-02-14T01:21:49.758Z,91.66
2023-02-14T01:24:12.514Z,92.01
2023-02-14T01:26:35.321Z,92.59
2023-02-14T01:28:56.942Z,92.65
2023-02-14T01:31:22.261Z,91.95
2023-02-14T01:33:46.271Z,91.58
2023-02-14T01:36:08.066Z,91.07
2023-02-14T01:38:29.647Z,90.91
2023-02-14T01:40:51.083Z,90.89
2023-02-14T01:43:15.921Z,90.61
2023-02-14T01:45:37.428Z,90.31
2023-02-14T01:47:59.371Z,90.00
2023-02-14T01:50:26.600Z,90.13
2023-02-14T01:52:56.652Z,90.76
2023-02-14T01:55:22.388Z,90.48
2023-02-14T01:57:48.224Z,90.18
2023-02-14T02:00:29.240Z,90.53
2023-02-14T02:02:51.106Z,89.71
2023-02-14T02:05:14.632Z,90.15
2023-02-14T02:07:36.553Z,90.15
2023-02-14T02:10:04.496Z,90.70
2023-02-14T02:12:26.320Z,91.05
2023-02-14T02:14:50.774Z,90.28
2023-02-14T02:17:36.523Z,89.94
2023-02-14T02:20:22.923Z,90.05
2023-02-14T02:23:19.436Z,90.45
2023-02-14T02:25:59.766Z,89.76
2023-02-14T02:28:53.386Z,89.86
2023-02-14T02:31:37.444Z,89.88
2023-02-14T02:34:32.795Z,89.87
2023-02-14T02:37:02.297Z,90.02
2023-02-14T02:39:48.612Z,90.13
2023-02-14T02:42:34.675Z,91.30
2023-02-14T02:45:02.117Z,91.21
2023-02-14T02:47:40.621Z,91.60
2023-02-14T02:50:42.586Z,91.12
2023-02-14T02:53:21.979Z,90.68
2023-02-14T02:56:17.506Z,90.95
2023-02-14T02:58:46.889Z,90.91
2023-02-14T03:01:22.195Z,90.53
2023-02-14T03:04:07.181Z,91.27
2023-02-14T03:06:30.616Z,93.72
2023-02-14T03:08:52.081Z,94.83
2023-02-14T03:11:14.017Z,94.04
2023-02-14T03:13:58.669Z,93.71
2023-02-14T03:16:38.638Z,92.58
2023-02-14T03:19:47.672Z,92.26
2023-02-14T03:22:31.273Z,91.57
2023-02-14T03:25:11.229Z,91.40
2023-02-14T03:27:41.417Z,92.30
2023-02-14T03:30:13.993Z,92.07
2023-02-14T03:32:46.717Z,91.78
2023-02-14T03:35:18.571Z,91.80
2023-02-14T03:38:07.420Z,91.11
2023-02-14T03:40:36.304Z,90.54
2023-02-14T03:43:10.453Z,90.98
2023-02-14T03:45:39.717Z,90.68
2023-02-14T03:48:06.316Z,90.60
2023-02-14T03:50:29.534Z,90.81
2023-02-14T03:52:53.833Z,91.09
2023-02-14T03:55:21.070Z,92.39
2023-02-14T03:57:49.459Z,92.25
2023-02-14T04:00:11.853Z,91.39
2023-02-14T04:02:56.413Z,90.87
2023-02-14T04:05:23.603Z,90.86
2023-02-14T04:07:53.408Z,91.06
2023-02-14T04:10:15.399Z,92.24
2023-02-14T04:12:38.166Z,93.22
2023-02-14T04:14:59.720Z,93.17
2023-02-14T04:17:39.847Z,92.71
2023-02-14T04:20:01.274Z,92.17
2023-02-14T04:22:22.801Z,92.35
2023-02-14T04:24:44.806Z,92.95
2023-02-14T04:27:12.307Z,93.17
2023-02-14T04:29:33.740Z,92.36
2023-02-14T04:31:55.446Z,93.83
2023-02-14T04:34:16.899Z,92.94
2023-02-14T04:36:38.363Z,92.70
2023-02-14T04:38:59.800Z,92.15
2023-02-14T04:41:21.225Z,91.98
2023-02-14T04:43:42.645Z,92.18
2023-02-14T04:46:04.252Z,91.75
2023-02-14T04:48:25.706Z,91.16
2023-02-14T04:50:52.526Z,90.98
2023-02-14T04:53:13.971Z,90.98
2023-02-14T04:55:35.407Z,90.48
2023-02-14T04:57:56.887Z,90.86
2023-02-14T05:00:19.015Z,91.03
2023-02-14T05:02:40.648Z,91.68
2023-02-14T05:05:02.272Z,91.60
2023-02-14T05:07:23.801Z,90.98
2023-02-14T05:09:45.301Z,90.27
2023-02-14T05:12:06.830Z,89.63
2023-02-14T05:14:28.513Z,89.98
2023-02-14T05:16:49.956Z,90.50
2023-02-14T05:19:11.468Z,90.45
2023-02-14T05:21:33.240Z,90.46
2023-02-14T05:23:54.687Z,90.26
2023-02-14T05:26:16.162Z,90.35
2023-02-14T05:28:37.628Z,90.79
2023-02-14T05:30:59.490Z,90.61
2023-02-14T05:33:21.025Z,90.18
2023-02-14T05:35:42.560Z,90.49
2023-02-14T05:38:04.644Z,90.63
2023-02-14T05:40:27.935Z,90.41
2023-02-14T05:42:49.430Z,90.06
2023-02-14T05:45:12.051Z,89.92
2023-02-14T05:47:33.558Z,89.55
2023-02-14T05:49:55.002Z,90.64
2023-02-14T05:52:16.643Z,91.04
2023-02-14T05:54:38.132Z,89.83
2023-02-14T05:56:59.599Z,90.51
2023-02-14T05:59:21.085Z,91.66
2023-02-14T06:01:42.531Z,91.90
2023-02-14T06:04:04.066Z,91.18
2023-02-14T06:06:25.706Z,91.48
2023-02-14T06:08:47.162Z,92.08
2023-02-14T06:11:08.631Z,91.95
2023-02-14T06:13:30.199Z,92.49
2023-02-14T06:15:51.614Z,93.11
2023-02-14T06:18:13.063Z,94.74
2023-02-14T06:20:34.732Z,95.85
2023-02-14T06:22:57.173Z,96.06
2023-02-14T06:25:19.075Z,96.14
2023-02-14T06:27:40.556Z,95.55
2023-02-14T06:30:02.437Z,95.71
2023-02-14T06:32:23.927Z,95.47
2023-02-14T06:34:45.690Z,95.23
2023-02-14T06:37:07.930Z,94.90
2023-02-14T06:39:29.357Z,94.93
2023-02-14T06:41:50.788Z,94.95
2023-02-14T06:44:12.250Z,95.53
2023-02-14T06:46:33.802Z,95.08
2023-02-14T06:48:55.267Z,96.52
2023-02-14T06:51:16.727Z,96.63
2023-02-14T06:53:38.204Z,97.30
2023-02-14T06:55:59.756Z,97.62
2023-02-14T06:58:21.300Z,97.70
2023-02-14T07:00:42.739Z,97.55
2023-02-14T07:03:04.240Z,97.77
2023-02-14T07:05:25.752Z,97.67
2023-02-14T07:07:47.794Z,98.33
2023-02-14T07:10:09.487Z,98.48
2023-02-14T07:12:30.937Z,98.89
2023-02-14T07:14:52.400Z,99.33
2023-02-14T07:17:13.873Z,99.23
2023-02-14T07:19:35.408Z,99.44
2023-02-14T07:21:56.835Z,99.48
2023-02-14T07:24:18.257Z,100.00
2023-02-14T07:26:39.730Z,100.00
2023-02-14T07:29:01.273Z,100.00
2023-02-14T07:31:23.542Z,99.63
2023-02-14T07:33:45.234Z,99.84
2023-02-14T07:36:08.472Z,100.00
2023-02-14T07:38:30.584Z,99.67
2023-02-14T07:40:53.818Z,100.00
2023-02-14T07:43:15.251Z,100.00
2023-02-14T07:45:36.708Z,100.00
2023-02-14T07:48:02.023Z,100.00
2023-02-14T07:50:23.920Z,100.00
2023-02-14T07:52:45.700Z,100.00
2023-02-14T07:55:07.785Z,100.00
2023-02-14T07:57:29.223Z,99.83
2023-02-14T07:59:50.639Z,99.36
2023-02-14T08:02:12.818Z,98.57
2023-02-14T08:04:34.293Z,97.72
2023-02-14T08:06:55.887Z,96.90
2023-02-14T08:09:24.680Z,96.11
2023-02-14T08:12:04.825Z,95.67
2023-02-14T08:14:26.297Z,96.44
2023-02-14T08:16:47.939Z,96.71
2023-02-14T08:19:09.374Z,95.98
2023-02-14T08:21:31.158Z,95.43
2023-02-14T08:23:52.615Z,95.11
2023-02-14T08:26:14.288Z,94.00
2023-02-14T08:28:35.857Z,93.65
2023-02-14T08:30:57.758Z,92.75
2023-02-14T08:33:20.200Z,93.70
2023-02-14T08:35:41.704Z,93.66
2023-02-14T08:38:03.843Z,92.01
2023-02-14T08:40:25.556Z,92.15
2023-02-14T08:42:47.220Z,92.75
2023-02-14T08:45:09.305Z,92.52
2023-02-14T08:47:38.244Z,93.15
2023-02-14T08:49:59.813Z,92.02
2023-02-14T08:52:21.278Z,91.94
2023-02-14T08:54:42.929Z,92.36
2023-02-14T08:57:04.420Z,93.09
2023-02-14T08:59:25.986Z,92.82
2023-02-14T09:01:47.435Z,92.61
2023-02-14T09:04:08.985Z,93.34
2023-02-14T09:06:30.512Z,92.90
2023-02-14T09:08:53.601Z,91.07
2023-02-14T09:11:18.701Z,92.31
2023-02-14T09:13:41.084Z,90.62
2023-02-14T09:16:07.652Z,90.55
2023-02-14T09:18:29.145Z,90.56
2023-02-14T09:20:50.617Z,90.75
2023-02-14T09:23:12.070Z,91.00
2023-02-14T09:25:33.491Z,90.30
2023-02-14T09:27:55.020Z,89.90
2023-02-14T09:30:16.713Z,90.39
2023-02-14T09:32:38.224Z,91.10
2023-02-14T09:35:18.358Z,89.73
2023-02-14T09:37:39.831Z,89.33
2023-02-14T09:40:01.285Z,88.74
2023-02-14T09:42:41.578Z,85.55
2023-02-14T09:45:12.061Z,87.60
2023-02-14T09:47:40.361Z,86.50
2023-02-14T09:50:06.374Z,88.15
2023-02-14T09:52:30.812Z,89.27
2023-02-14T09:54:57.700Z,91.33
2023-02-14T09:57:38.658Z,90.10
2023-02-14T10:00:28.359Z,90.84
2023-02-14T10:03:11.400Z,90.62
2023-02-14T10:05:41.434Z,90.72
2023-02-14T10:08:21.619Z,89.98
2023-02-14T10:10:46.527Z,88.85
2023-02-14T10:13:30.144Z,90.13
2023-02-14T10:16:01.604Z,89.45
2023-02-14T10:18:38.190Z,88.36
2023-02-14T10:21:02.631Z,88.78
2023-02-14T10:23:34.392Z,89.45
2023-02-14T10:26:08.073Z,87.55
2023-02-14T10:28:40.722Z,87.95
2023-02-14T10:31:23.732Z,88.31
2023-02-14T10:33:57.094Z,89.27
2023-02-14T10:36:49.462Z,89.79
2023-02-14T10:39:16.742Z,88.80
2023-02-14T10:41:56.787Z,88.51
2023-02-14T10:44:38.965Z,87.55
2023-02-14T10:47:18.856Z,85.53
2023-02-14T10:49:59.267Z,86.94
2023-02-14T10:52:50.024Z,86.97
2023-02-14T10:55:32.357Z,88.07
2023-02-14T10:57:56.297Z,88.87
2023-02-14T11:00:24.056Z,88.43
2023-02-14T11:02:47.559Z,87.95
2023-02-14T11:05:30.025Z,87.34
2023-02-14T11:07:51.455Z,87.53
2023-02-14T11:10:14.639Z,87.21
2023-02-14T11:12:41.188Z,85.10
2023-02-14T11:15:14.917Z,85.89
2023-02-14T11:17:37.372Z,86.35
2023-02-14T11:20:09.580Z,87.12
2023-02-14T11:22:33.416Z,87.22
2023-02-14T11:25:07.281Z,88.38
2023-02-14T11:27:28.766Z,87.04
2023-02-14T11:29:52.358Z,86.19
2023-02-14T11:32:23.200Z,86.38
2023-02-14T11:34:54.214Z,84.97
2023-02-14T11:37:25.804Z,86.21
2023-02-14T11:39:47.930Z,86.03
2023-02-14T11:42:12.614Z,86.77
2023-02-14T11:44:36.859Z,86.49
2023-02-14T11:47:17.824Z,85.92
2023-02-14T11:49:39.298Z,86.61
2023-02-14T11:52:10.549Z,86.51
2023-02-14T11:54:37.485Z,86.00
2023-02-14T11:57:12.623Z,85.98
2023-02-14T11:59:42.340Z,85.97
2023-02-14T12:02:32.659Z,86.14
2023-02-14T12:05:21.024Z,86.07
2023-02-14T12:07:44.970Z,86.61
2023-02-14T12:10:15.741Z,86.64
2023-02-14T12:12:37.420Z,86.99
2023-02-14T12:15:43.414Z,88.29
2023-02-14T12:18:29.653Z,87.91
2023-02-14T12:21:00.815Z,88.40
2023-02-14T12:23:34.992Z,88.55
2023-02-14T12:26:02.761Z,86.56
2023-02-14T12:28:39.491Z,87.30
2023-02-14T12:31:01.351Z,86.37
2023-02-14T12:33:25.948Z,86.71
2023-02-14T12:36:00.927Z,86.50
2023-02-14T12:38:38.873Z,86.39
2023-02-14T12:41:18.938Z,85.54
2023-02-14T12:43:54.704Z,87.83
2023-02-14T12:46:53.950Z,85.74
2023-02-14T12:49:37.349Z,87.15
2023-02-14T12:52:27.752Z,87.29
2023-02-14T12:55:27.165Z,85.83
2023-02-14T12:58:01.630Z,84.63
2023-02-14T13:00:45.007Z,83.90
2023-02-14T13:03:44.738Z,84.20
2023-02-14T13:06:28.185Z,83.08
2023-02-14T13:09:25.809Z,83.35
2023-02-14T13:12:16.808Z,85.19
2023-02-14T13:15:01.190Z,83.85
2023-02-14T13:17:29.644Z,83.89
2023-02-14T13:19:59.831Z,83.15
2023-02-14T13:22:25.116Z,84.73
2023-02-14T13:24:50.529Z,87.20
2023-02-14T13:27:27.784Z,86.13
2023-02-14T13:29:53.158Z,83.96
2023-02-14T13:32:18.807Z,84.24
2023-02-14T13:34:46.657Z,83.38
2023-02-14T13:37:12.599Z,83.82
2023-02-14T13:39:38.851Z,83.92
2023-02-14T13:42:01.154Z,83.82
2023-02-14T13:44:46.136Z,84.87
2023-02-14T13:47:16.311Z,84.74
2023-02-14T13:49:46.164Z,84.87
2023-02-14T13:52:09.763Z,84.74
2023-02-14T13:54:33.173Z,85.53
2023-02-14T13:56:54.822Z,87.07
2023-02-14T13:59:34.363Z,85.66
2023-02-14T14:01:56.205Z,84.81
2023-02-14T14:04:30.337Z,85.57
2023-02-14T14:07:03.947Z,84.93
2023-02-14T14:09:40.392Z,84.67
2023-02-14T14:12:01.946Z,85.27
2023-02-14T14:14:30.339Z,85.12
2023-02-14T14:16:59.816Z,85.12
2023-02-14T14:19:21.291Z,85.02
2023-02-14T14:21:59.458Z,84.79
2023-02-14T14:24:25.016Z,82.80
2023-02-14T14:26:57.409Z,83.73
2023-02-14T14:29:38.350Z,83.33
2023-02-14T14:32:11.559Z,82.95
2023-02-14T14:34:33.029Z,82.84
2023-02-14T14:37:03.281Z,82.38
2023-02-14T14:39:32.172Z,83.06
2023-02-14T14:41:54.289Z,82.25
2023-02-14T14:44:16.519Z,81.54
2023-02-14T14:46:38.133Z,81.26
2023-02-14T14:48:59.682Z,81.87
2023-02-14T14:51:30.502Z,80.97
2023-02-14T14:53:58.897Z,81.91
2023-02-14T14:56:24.178Z,81.47
2023-02-14T14:58:45.807Z,81.10
2023-02-14T15:01:13.138Z,80.91
2023-02-14T15:03:34.791Z,80.58
2023-02-14T15:06:09.500Z,81.69
2023-02-14T15:08:32.083Z,79.98
2023-02-14T15:10:56.935Z,80.68
2023-02-14T15:13:37.233Z,81.70
2023-02-14T15:15:58.882Z,81.71
2023-02-14T15:18:21.484Z,81.96
2023-02-14T15:20:48.144Z,82.38
2023-02-14T15:23:19.014Z,81.21
2023-02-14T15:25:44.578Z,81.65
2023-02-14T15:28:06.071Z,80.65
2023-02-14T15:30:34.062Z,80.41
2023-02-14T15:32:56.410Z,78.75
2023-02-14T15:35:30.677Z,78.92
2023-02-14T15:37:52.825Z,79.34
2023-02-14T15:40:20.005Z,79.36
2023-02-14T15:42:44.741Z,77.76
2023-02-14T15:45:26.144Z,78.46
2023-02-14T15:47:51.971Z,78.74
2023-02-14T15:50:27.691Z,79.32
2023-02-14T15:52:49.221Z,78.72
2023-02-14T15:55:12.068Z,77.98
2023-02-14T15:57:34.754Z,76.89
2023-02-14T15:59:56.238Z,77.30
2023-02-14T16:02:29.815Z,78.83
2023-02-14T16:04:51.323Z,79.53
2023-02-14T16:07:29.218Z,79.24
2023-02-14T16:10:12.064Z,78.78
2023-02-14T16:12:36.304Z,79.42
2023-02-14T16:15:21.911Z,81.78
2023-02-14T16:17:44.120Z,82.29
2023-02-14T16:20:24.201Z,83.64
2023-02-14T16:22:45.631Z,84.31
2023-02-14T16:25:08.376Z,83.69
2023-02-14T16:27:29.827Z,84.00
2023-02-14T16:29:51.266Z,83.46
2023-02-14T16:32:20.060Z,83.22
2023-02-14T16:34:41.674Z,83.59
2023-02-14T16:37:08.503Z,84.58
2023-02-14T16:39:32.000Z,84.53
2023-02-14T16:41:56.176Z,84.77
2023-02-14T16:44:19.530Z,85.71
2023-02-14T16:46:43.087Z,85.87
2023-02-14T16:49:04.623Z,85.27
2023-02-14T16:51:29.445Z,85.77
2023-02-14T16:53:51.145Z,87.84
2023-02-14T16:56:20.336Z,88.85
2023-02-14T16:58:41.951Z,88.48
2023-02-14T17:01:03.999Z,88.28
2023-02-14T17:03:25.591Z,87.75
2023-02-14T17:05:47.508Z,88.11
2023-02-14T17:08:11.734Z,88.55
2023-02-14T17:10:34.032Z,88.28
2023-02-14T17:12:59.101Z,88.02
2023-02-14T17:15:24.467Z,87.66
2023-02-14T17:17:49.100Z,86.93
2023-02-14T17:20:12.445Z,86.88
2023-02-14T17:22:35.566Z,86.60
2023-02-14T17:24:57.255Z,87.38
2023-02-14T17:27:18.747Z,87.06
2023-02-14T17:29:40.200Z,88.24
2023-02-14T17:32:02.104Z,88.96
2023-02-14T17:34:23.656Z,89.79
2023-02-14T17:36:45.187Z,89.93
2023-02-14T17:39:08.251Z,89.47
2023-02-14T17:41:29.692Z,89.18
2023-02-14T17:43:55.544Z,88.78
2023-02-14T17:46:20.766Z,88.08
2023-02-14T17:48:45.493Z,88.00
2023-02-14T17:51:08.697Z,88.64
2023-02-14T17:53:30.145Z,88.81
2023-02-14T17:55:52.277Z,88.08
2023-02-14T17:58:13.730Z,87.40
2023-02-14T18:00:35.172Z,88.00
2023-02-14T18:02:56.637Z,88.93
2023-02-14T18:05:18.171Z,89.28
2023-02-14T18:07:39.957Z,89.34
2023-02-14T18:10:01.497Z,89.63
2023-02-14T18:12:22.964Z,89.59
2023-02-14T18:14:44.397Z,88.76
2023-02-14T18:17:06.131Z,88.60
2023-02-14T18:19:28.624Z,88.26
2023-02-14T18:21:50.142Z,88.32
2023-02-14T18:24:12.254Z,87.99
2023-02-14T18:26:35.446Z,87.68
2023-02-14T18:28:57.976Z,87.48
2023-02-14T18:31:20.406Z,87.42
2023-02-14T18:33:42.404Z,87.55
2023-02-14T18:36:12.721Z,87.00
2023-02-14T18:38:35.142Z,86.72
2023-02-14T18:41:02.206Z,86.49
2023-02-14T18:43:23.792Z,85.89
2023-02-14T18:45:45.274Z,86.40
2023-02-14T18:48:06.830Z,86.44
2023-02-14T18:50:28.270Z,86.07
2023-02-14T18:52:49.671Z,85.70
2023-02-14T18:55:13.381Z,85.75
2023-02-14T18:57:35.219Z,85.75
2023-02-14T18:59:56.747Z,85.41
2023-02-14T19:02:18.269Z,85.33
2023-02-14T19:04:39.832Z,85.20
2023-02-14T19:07:01.286Z,84.99
2023-02-14T19:09:22.937Z,84.38
2023-02-14T19:11:45.216Z,84.87
2023-02-14T19:14:10.308Z,85.00
2023-02-14T19:16:33.812Z,83.75
2023-02-14T19:18:55.729Z,83.73
2023-02-14T19:21:30.433Z,84.33
2023-02-14T19:23:53.946Z,84.48
2023-02-14T19:26:21.301Z,84.40
2023-02-14T19:28:43.571Z,84.38
2023-02-14T19:31:05.123Z,84.09
2023-02-14T19:33:26.637Z,84.15
2023-02-14T19:35:50.209Z,84.28
2023-02-14T19:38:11.618Z,84.16
2023-02-14T19:40:33.093Z,83.97
2023-02-14T19:42:54.548Z,84.65
2023-02-14T19:45:15.979Z,83.57
2023-02-14T19:47:46.698Z,83.97
2023-02-14T19:50:09.075Z,83.50
2023-02-14T19:52:30.637Z,83.69
2023-02-14T19:54:52.085Z,84.69
2023-02-14T19:57:14.302Z,84.54
2023-02-14T19:59:35.756Z,86.48
2023-02-14T20:01:58.392Z,86.69
2023-02-14T20:04:23.236Z,85.98
2023-02-14T20:06:45.671Z,85.35
2023-02-14T20:09:08.503Z,85.98
2023-02-14T20:11:49.830Z,87.70
2023-02-14T20:14:11.308Z,88.97
2023-02-14T20:16:35.302Z,89.73
2023-02-14T20:18:56.942Z,89.95
2023-02-14T20:21:24.532Z,91.06
2023-02-14T20:23:45.987Z,91.94
2023-02-14T20:26:14.664Z,92.01
2023-02-14T20:28:36.119Z,91.54
2023-02-14T20:30:57.604Z,92.79
2023-02-14T20:33:19.126Z,93.08
2023-02-14T20:35:40.794Z,93.75
2023-02-14T20:38:02.802Z,94.97
2023-02-14T20:40:24.302Z,95.94
2023-02-14T20:42:48.867Z,96.30
2023-02-14T20:45:10.848Z,94.69
2023-02-14T20:47:32.289Z,95.15
2023-02-14T20:49:53.741Z,95.51
2023-02-14T20:52:17.921Z,95.19
2023-02-14T20:54:39.771Z,95.91
2023-02-14T20:57:01.249Z,98.02
2023-02-14T20:59:26.948Z,98.42
2023-02-14T21:01:48.518Z,97.92
2023-02-14T21:04:10.125Z,96.87
2023-02-14T21:06:34.905Z,96.90
2023-02-14T21:08:57.587Z,97.37
2023-02-14T21:11:20.704Z,96.69
2023-02-14T21:13:42.344Z,96.68
2023-02-14T21:16:03.865Z,96.74
2023-02-14T21:18:25.340Z,96.84
2023-02-14T21:20:46.824Z,96.06
2023-02-14T21:23:08.270Z,97.35
2023-02-14T21:25:32.185Z,98.00
2023-02-14T21:27:54.109Z,96.89
2023-02-14T21:30:15.590Z,97.97
2023-02-14T21:32:37.024Z,97.06
2023-02-14T21:34:58.584Z,96.77
2023-02-14T21:37:20.030Z,97.05
2023-02-14T21:39:41.745Z,98.43
2023-02-14T21:42:04.350Z,97.33
2023-02-14T21:44:44.179Z,96.74
2023-02-14T21:47:05.773Z,96.19
2023-02-14T21:49:46.255Z,95.64
2023-02-14T21:52:07.657Z,96.81
2023-02-14T21:54:29.204Z,96.50
2023-02-14T21:56:50.598Z,97.71
2023-02-14T21:59:12.696Z,97.32
2023-02-14T22:01:36.411Z,98.04
2023-02-14T22:03:59.150Z,97.99
2023-02-14T22:06:21.655Z,99.02
2023-02-14T22:08:43.529Z,98.51
2023-02-14T22:11:06.927Z,97.85
2023-02-14T22:13:28.357Z,97.68
2023-02-14T22:15:49.989Z,97.92
2023-02-14T22:18:11.491Z,97.39
2023-02-14T22:20:32.938Z,97.45
2023-02-14T22:22:54.352Z,97.73
2023-02-14T22:25:15.917Z,97.53
2023-02-14T22:27:39.555Z,97.12
2023-02-14T22:30:01.061Z,97.25
2023-02-14T22:32:22.697Z,96.97
2023-02-14T22:34:44.378Z,97.24
2023-02-14T22:37:05.819Z,96.08
2023-02-14T22:39:27.397Z,96.19
2023-02-14T22:41:48.802Z,95.24
2023-02-14T22:44:10.510Z,96.64
2023-02-14T22:46:32.698Z,96.87
2023-02-14T22:48:55.919Z,96.25
2023-02-14T22:51:24.878Z,95.08
2023-02-14T22:53:47.276Z,95.74
2023-02-14T22:56:10.984Z,95.72
2023-02-14T22:58:32.410Z,97.44
2023-02-14T23:00:53.903Z,96.48
2023-02-14T23:05:38.038Z,96.05
2023-02-14T23:07:59.438Z,94.61
2023-02-14T23:10:20.906Z,95.91
2023-02-14T23:13:00.724Z,95.59
2023-02-14T23:15:40.591Z,95.75
2023-02-14T23:18:21.059Z,95.08
2023-02-14T23:21:01.132Z,94.12
2023-02-14T23:23:22.561Z,94.56
2023-02-14T23:25:43.996Z,94.97
2023-02-14T23:28:05.421Z,95.01
2023-02-14T23:30:26.892Z,93.93
2023-02-14T23:32:48.444Z,93.39
2023-02-14T23:35:09.973Z,93.15
2023-02-14T23:37:31.450Z,92.54
2023-02-14T23:39:52.894Z,93.15
2023-02-14T23:42:14.977Z,93.25
2023-02-14T23:44:36.849Z,94.31
2023-02-14T23:47:00.710Z,94.29
2023-02-14T23:49:23.516Z,94.42
2023-02-14T23:51:47.178Z,95.32
2023-02-14T23:54:09.307Z,96.26
2023-02-14T23:56:30.878Z,96.30
2023-02-14T23:58:52.414Z,95.60
